createdAt,value
2022-11-20T00:01:21.685Z,3.47
2022-11-20T00:03:48.776Z,3.63
2022-11-20T00:06:18.765Z,3.30
2022-11-20T00:08:46.328Z,3.47
2022-11-20T00:11:18.104Z,3.50
2022-11-20T00:13:46.495Z,3.43
2022-11-20T00:16:16.287Z,3.73
2022-11-20T00:18:45.827Z,3.10
2022-11-20T00:21:22.627Z,3.60
2022-11-20T00:23:53.860Z,3.57
2022-11-20T00:26:24.366Z,3.50
2022-11-20T00:29:00.110Z,3.33
2022-11-20T00:31:28.530Z,3.30
2022-11-20T00:33:55.497Z,3.47
2022-11-20T00:36:25.431Z,3.77
2022-11-20T00:38:54.310Z,4.03
2022-11-20T00:41:21.672Z,4.33
2022-11-20T00:43:48.584Z,4.17
2022-11-20T00:46:22.479Z,4.13
2022-11-20T00:48:49.512Z,4.20
2022-11-20T00:51:20.186Z,4.30
2022-11-20T00:53:47.811Z,4.80
2022-11-20T00:56:18.189Z,4.60
2022-11-20T00:58:47.838Z,5.27
2022-11-20T01:01:19.420Z,5.03
2022-11-20T01:03:50.064Z,5.13
2022-11-20T01:06:21.240Z,5.37
2022-11-20T01:08:49.442Z,6.07
2022-11-20T01:11:20.203Z,5.47
2022-11-20T01:13:49.196Z,5.40
2022-11-20T01:16:23.453Z,5.80
2022-11-20T01:18:53.783Z,5.27
2022-11-20T01:21:33.714Z,5.70
2022-11-20T01:24:01.447Z,6.10
2022-11-20T01:26:33.168Z,5.20
2022-11-20T01:29:01.292Z,5.00
2022-11-20T01:31:30.846Z,4.83
2022-11-20T01:34:01.332Z,4.67
2022-11-20T01:36:30.381Z,5.07
2022-11-20T01:39:00.822Z,4.80
2022-11-20T01:41:48.926Z,5.60
2022-11-20T01:44:19.151Z,5.10
2022-11-20T01:46:57.780Z,4.67
2022-11-20T01:49:43.757Z,5.10
2022-11-20T01:52:15.636Z,5.37
2022-11-20T01:54:50.822Z,4.80
2022-11-20T01:57:20.704Z,4.80
2022-11-20T02:00:01.005Z,4.83
2022-11-20T02:02:28.501Z,4.70
2022-11-20T02:05:03.777Z,4.73
2022-11-20T02:07:31.812Z,4.47
2022-11-20T02:09:59.109Z,5.00
2022-11-20T02:12:44.639Z,4.67
2022-11-20T02:15:11.672Z,4.50
2022-11-20T02:17:39.220Z,3.97
2022-11-20T02:20:07.390Z,4.63
2022-11-20T02:22:49.599Z,5.03
2022-11-20T02:25:17.126Z,4.83
2022-11-20T02:27:44.223Z,4.13
2022-11-20T02:30:12.028Z,4.57
2022-11-20T02:32:39.828Z,4.73
2022-11-20T02:35:10.829Z,4.37
2022-11-20T02:37:41.309Z,4.47
2022-11-20T02:40:09.200Z,4.40
2022-11-20T02:42:37.237Z,5.20
2022-11-20T02:45:05.946Z,4.57
2022-11-20T02:47:33.428Z,4.70
2022-11-20T02:50:00.387Z,4.73
2022-11-20T02:52:27.380Z,4.53
2022-11-20T02:54:54.244Z,4.50
2022-11-20T02:57:21.217Z,4.80
2022-11-20T02:59:48.020Z,4.73
2022-11-20T03:02:14.803Z,4.37
2022-11-20T03:04:41.619Z,4.67
2022-11-20T03:07:10.716Z,5.50
2022-11-20T03:09:37.844Z,4.40
2022-11-20T03:12:05.245Z,4.60
2022-11-20T03:14:32.103Z,5.00
2022-11-20T03:16:58.957Z,4.90
2022-11-20T03:19:25.780Z,4.53
2022-11-20T03:21:52.592Z,5.07
2022-11-20T03:24:19.458Z,5.03
2022-11-20T03:26:46.338Z,4.80
2022-11-20T03:29:13.231Z,4.80
2022-11-20T03:31:41.910Z,4.93
2022-11-20T03:34:10.775Z,4.80
2022-11-20T03:36:42.873Z,5.03
2022-11-20T03:39:10.656Z,5.00
2022-11-20T03:41:40.845Z,4.90
2022-11-20T03:44:10.874Z,5.00
2022-11-20T03:46:38.042Z,5.00
2022-11-20T03:49:05.605Z,4.90
2022-11-20T03:51:35.707Z,5.00
2022-11-20T03:54:08.600Z,4.70
2022-11-20T03:56:38.714Z,4.93
2022-11-20T03:59:06.048Z,5.10
2022-11-20T04:01:36.142Z,5.10
2022-11-20T04:04:04.115Z,5.40
2022-11-20T04:06:36.827Z,5.30
2022-11-20T04:09:04.760Z,4.70
2022-11-20T04:11:35.083Z,5.60
2022-11-20T04:14:05.913Z,4.97
2022-11-20T04:16:37.222Z,4.67
2022-11-20T04:19:07.539Z,5.27
2022-11-20T04:21:34.604Z,4.80
2022-11-20T04:24:01.959Z,5.03
2022-11-20T04:26:30.128Z,5.40
2022-11-20T04:28:58.277Z,4.87
2022-11-20T04:31:28.620Z,5.37
2022-11-20T04:33:55.873Z,5.30
2022-11-20T04:36:27.737Z,4.97
2022-11-20T04:39:00.282Z,5.17
2022-11-20T04:41:30.689Z,4.43
2022-11-20T04:44:03.271Z,4.27
2022-11-20T04:46:32.903Z,5.33
2022-11-20T04:49:00.772Z,4.20
2022-11-20T04:51:28.428Z,4.30
2022-11-20T04:53:55.412Z,4.40
2022-11-20T04:56:22.337Z,4.30
2022-11-20T04:58:49.248Z,4.37
2022-11-20T05:01:25.079Z,3.77
2022-11-20T05:03:52.567Z,3.70
2022-11-20T05:06:22.209Z,3.70
2022-11-20T05:08:49.324Z,3.67
2022-11-20T05:11:20.457Z,3.97
2022-11-20T05:13:47.749Z,3.70
2022-11-20T05:16:18.385Z,3.60
2022-11-20T05:18:45.729Z,3.90
2022-11-20T05:21:14.172Z,3.70
2022-11-20T05:23:42.093Z,3.97
2022-11-20T05:26:22.151Z,4.07
2022-11-20T05:28:50.062Z,4.17
2022-11-20T05:31:27.252Z,4.33
2022-11-20T05:33:56.640Z,4.33
2022-11-20T05:36:23.808Z,3.83
2022-11-20T05:38:51.345Z,4.33
2022-11-20T05:41:20.860Z,4.00
2022-11-20T05:43:49.330Z,4.10
2022-11-20T05:46:21.263Z,3.97
2022-11-20T05:48:51.794Z,4.63
2022-11-20T05:51:20.679Z,3.90
2022-11-20T05:53:48.764Z,4.23
2022-11-20T05:56:21.418Z,4.03
2022-11-20T05:58:49.048Z,4.10
2022-11-20T06:01:25.450Z,4.33
2022-11-20T06:03:54.144Z,3.90
2022-11-20T06:06:22.037Z,3.63
2022-11-20T06:08:49.804Z,3.83
2022-11-20T06:11:17.965Z,3.50
2022-11-20T06:13:46.347Z,4.03
2022-11-20T06:16:16.932Z,4.00
2022-11-20T06:18:43.952Z,3.60
2022-11-20T06:21:19.574Z,3.90
2022-11-20T06:23:46.717Z,4.30
2022-11-20T06:26:24.194Z,4.20
2022-11-20T06:28:52.168Z,4.27
2022-11-20T06:31:22.257Z,3.83
2022-11-20T06:33:49.948Z,4.10
2022-11-20T06:36:20.094Z,4.00
2022-11-20T06:38:46.948Z,3.67
2022-11-20T06:41:17.092Z,4.10
2022-11-20T06:43:44.293Z,4.00
2022-11-20T06:46:13.392Z,4.00
2022-11-20T06:48:41.084Z,3.90
2022-11-20T06:51:09.296Z,3.40
2022-11-20T06:53:37.179Z,3.77
2022-11-20T06:56:04.672Z,3.87
2022-11-20T06:58:33.623Z,3.67
2022-11-20T07:01:12.482Z,3.83
2022-11-20T07:03:40.631Z,3.60
2022-11-20T07:06:07.904Z,3.83
2022-11-20T07:08:35.836Z,3.60
2022-11-20T07:11:06.315Z,4.13
2022-11-20T07:13:33.911Z,3.67
2022-11-20T07:16:07.358Z,3.40
2022-11-20T07:18:34.786Z,3.53
2022-11-20T07:21:03.631Z,3.60
2022-11-20T07:23:30.670Z,3.90
2022-11-20T07:25:57.461Z,4.00
2022-11-20T07:28:24.251Z,3.03
2022-11-20T07:30:54.541Z,3.57
2022-11-20T07:33:22.003Z,3.60
2022-11-20T07:35:48.847Z,3.60
2022-11-20T07:38:16.043Z,3.83
2022-11-20T07:40:42.872Z,3.53
2022-11-20T07:43:09.691Z,3.50
2022-11-20T07:45:36.561Z,3.60
2022-11-20T07:48:03.641Z,3.00
2022-11-20T07:50:30.545Z,3.20
2022-11-20T07:53:06.854Z,3.70
2022-11-20T07:55:34.202Z,3.60
2022-11-20T07:58:01.175Z,3.70
2022-11-20T08:00:28.613Z,3.30
2022-11-20T08:02:55.755Z,3.30
2022-11-20T08:05:22.633Z,3.90
2022-11-20T08:07:49.576Z,3.27
2022-11-20T08:10:17.311Z,3.40
2022-11-20T08:13:10.734Z,3.23
2022-11-20T08:15:39.771Z,3.00
2022-11-20T08:20:57.158Z,3.10
2022-11-20T08:23:24.858Z,3.60
2022-11-20T08:25:52.203Z,3.33
2022-11-20T08:28:21.632Z,3.17
2022-11-20T08:30:51.007Z,3.17
2022-11-20T08:33:18.992Z,3.10
2022-11-20T08:35:45.957Z,3.27
2022-11-20T08:38:12.825Z,3.37
2022-11-20T08:40:39.620Z,3.00
2022-11-20T08:43:06.449Z,2.87
2022-11-20T08:45:35.040Z,3.10
2022-11-20T08:48:04.117Z,3.37
2022-11-20T08:50:33.353Z,3.20
2022-11-20T08:53:07.266Z,3.30
2022-11-20T08:55:36.488Z,3.40
2022-11-20T08:58:07.811Z,3.30
2022-11-20T09:00:35.416Z,3.27
2022-11-20T09:03:02.853Z,2.90
2022-11-20T09:05:30.262Z,2.90
2022-11-20T09:08:00.391Z,3.13
2022-11-20T09:10:28.536Z,3.20
2022-11-20T09:12:56.502Z,3.07
2022-11-20T09:15:25.072Z,3.20
2022-11-20T09:18:01.885Z,3.20
2022-11-20T09:20:32.065Z,2.80
2022-11-20T09:22:59.098Z,3.20
2022-11-20T09:25:26.270Z,3.10
2022-11-20T09:28:00.002Z,2.90
2022-11-20T09:30:28.010Z,3.37
2022-11-20T09:32:55.308Z,3.30
2022-11-20T09:35:22.130Z,3.30
2022-11-20T09:37:49.024Z,3.60
2022-11-20T09:40:23.859Z,3.30
2022-11-20T09:42:58.652Z,3.00
2022-11-20T09:46:21.109Z,3.20
2022-11-20T09:49:09.117Z,3.27
2022-11-20T09:51:42.669Z,3.03
2022-11-20T09:54:36.683Z,3.13
2022-11-20T09:57:13.681Z,3.10
2022-11-20T09:59:52.265Z,6.43
2022-11-20T10:02:27.733Z,3.00
2022-11-20T10:05:10.410Z,2.57
2022-11-20T10:08:00.290Z,2.50
2022-11-20T10:10:52.425Z,2.93
2022-11-20T10:13:46.291Z,4.33
2022-11-20T10:16:15.715Z,2.97
2022-11-20T10:18:56.128Z,2.97
2022-11-20T10:21:48.187Z,2.73
2022-11-20T10:24:42.615Z,2.77
2022-11-20T10:27:45.714Z,3.00
2022-11-20T10:30:15.941Z,2.30
2022-11-20T10:32:48.086Z,3.30
2022-11-20T10:35:14.765Z,2.70
2022-11-20T10:37:46.372Z,2.77
2022-11-20T10:40:45.453Z,4.03
2022-11-20T10:43:33.892Z,2.40
2022-11-20T10:46:13.621Z,2.10
2022-11-20T10:48:44.383Z,2.30
2022-11-20T10:51:37.878Z,1.97
2022-11-20T10:54:59.953Z,2.30
2022-11-20T10:57:55.346Z,2.10
2022-11-20T11:00:22.477Z,2.10
2022-11-20T11:02:52.517Z,2.30
2022-11-20T11:05:41.665Z,2.20
2022-11-20T11:08:17.160Z,1.90
2022-11-20T11:11:19.710Z,1.70
2022-11-20T11:13:46.777Z,1.93
2022-11-20T11:16:26.816Z,4.13
2022-11-20T11:19:14.258Z,1.70
2022-11-20T11:21:55.612Z,1.80
2022-11-20T11:24:44.197Z,3.30
2022-11-20T11:27:18.669Z,1.50
2022-11-20T11:29:47.013Z,2.00
2022-11-20T11:32:20.176Z,2.30
2022-11-20T11:35:04.314Z,1.80
2022-11-20T11:37:39.697Z,1.90
2022-11-20T11:40:28.539Z,1.60
2022-11-20T11:43:00.871Z,1.60
2022-11-20T11:45:28.816Z,1.17
2022-11-20T11:47:58.876Z,1.33
2022-11-20T11:50:30.430Z,1.60
2022-11-20T11:53:10.868Z,1.63
2022-11-20T11:55:49.006Z,1.40
2022-11-20T11:58:25.179Z,1.20
2022-11-20T12:01:01.528Z,1.23
2022-11-20T12:03:44.803Z,1.20
2022-11-20T12:06:17.458Z,1.50
2022-11-20T12:09:08.836Z,1.40
2022-11-20T12:12:04.221Z,1.40
2022-11-20T12:14:41.098Z,1.60
2022-11-20T12:17:13.090Z,1.20
2022-11-20T12:19:40.438Z,1.17
2022-11-20T12:22:29.808Z,1.13
2022-11-20T12:25:12.978Z,1.40
2022-11-20T12:28:06.679Z,1.40
2022-11-20T12:30:49.579Z,1.50
2022-11-20T12:33:50.513Z,1.17
2022-11-20T12:36:21.059Z,1.23
2022-11-20T12:39:19.344Z,1.20
2022-11-20T12:42:23.379Z,1.07
2022-11-20T12:45:11.353Z,1.30
2022-11-20T12:48:16.267Z,1.30
2022-11-20T12:51:26.119Z,1.17
2022-11-20T12:54:31.106Z,1.40
2022-11-20T12:57:22.647Z,1.17
2022-11-20T13:00:16.002Z,1.13
2022-11-20T13:03:00.304Z,2.10
2022-11-20T13:05:57.116Z,1.30
2022-11-20T13:08:39.207Z,1.20
2022-11-20T13:11:35.614Z,1.60
2022-11-20T13:14:27.436Z,1.30
2022-11-20T13:17:06.318Z,1.57
2022-11-20T13:19:34.263Z,2.73
2022-11-20T13:22:01.245Z,1.67
2022-11-20T13:24:32.234Z,1.50
2022-11-20T13:27:13.987Z,3.90
2022-11-20T13:29:46.378Z,1.90
2022-11-20T13:32:19.279Z,1.60
2022-11-20T13:35:01.657Z,1.30
2022-11-20T13:37:38.599Z,1.60
2022-11-20T13:40:11.423Z,1.90
2022-11-20T13:42:43.955Z,1.63
2022-11-20T13:45:23.821Z,1.30
2022-11-20T13:47:53.098Z,1.43
2022-11-20T13:50:26.335Z,1.40
2022-11-20T13:53:38.925Z,1.80
2022-11-20T13:56:10.166Z,2.50
2022-11-20T13:59:05.341Z,2.20
2022-11-20T14:01:33.591Z,1.83
2022-11-20T14:04:08.068Z,2.00
2022-11-20T14:06:43.720Z,2.20
2022-11-20T14:09:33.362Z,2.40
2022-11-20T14:12:00.729Z,1.60
2022-11-20T14:14:33.303Z,2.50
2022-11-20T14:17:34.522Z,2.00
2022-11-20T14:20:06.258Z,1.57
2022-11-20T14:22:33.113Z,1.47
2022-11-20T14:25:18.331Z,1.50
2022-11-20T14:27:55.255Z,1.60
2022-11-20T14:30:25.991Z,1.40
2022-11-20T14:33:01.422Z,1.40
2022-11-20T14:35:32.640Z,1.20
2022-11-20T14:37:59.715Z,1.10
2022-11-20T14:40:36.784Z,1.23
2022-11-20T14:43:28.013Z,1.30
2022-11-20T14:46:10.187Z,1.40
2022-11-20T14:49:01.759Z,1.80
2022-11-20T14:51:37.758Z,1.43
2022-11-20T14:54:26.440Z,1.60
2022-11-20T14:57:02.722Z,1.50
2022-11-20T14:59:35.021Z,1.67
2022-11-20T15:02:12.246Z,1.70
2022-11-20T15:04:50.183Z,1.63
2022-11-20T15:07:29.352Z,1.47
2022-11-20T15:10:10.524Z,1.83
2022-11-20T15:12:47.782Z,1.57
2022-11-20T15:15:51.273Z,1.87
2022-11-20T15:18:23.427Z,1.70
2022-11-20T15:20:51.126Z,1.50
2022-11-20T15:23:20.048Z,1.50
2022-11-20T15:25:48.497Z,1.30
2022-11-20T15:28:31.471Z,1.47
2022-11-20T15:30:58.794Z,1.83
2022-11-20T15:33:25.786Z,1.77
2022-11-20T15:35:52.631Z,1.67
2022-11-20T15:38:19.432Z,1.40
2022-11-20T15:40:46.191Z,1.77
2022-11-20T15:43:13.967Z,1.60
2022-11-20T15:45:56.818Z,1.63
2022-11-20T15:48:30.942Z,1.67
2022-11-20T15:51:12.771Z,1.40
2022-11-20T15:53:42.009Z,1.60
2022-11-20T15:56:15.729Z,1.50
2022-11-20T15:58:42.815Z,1.90
2022-11-20T16:01:15.778Z,1.80
2022-11-20T16:03:43.114Z,4.83
2022-11-20T16:06:10.072Z,6.47
2022-11-20T16:08:37.067Z,2.40
2022-11-20T16:11:04.729Z,2.63
2022-11-20T16:13:51.843Z,5.87
2022-11-20T16:16:33.567Z,2.00
2022-11-20T16:19:01.183Z,1.63
2022-11-20T16:21:32.235Z,1.60
2022-11-20T16:24:05.831Z,1.40
2022-11-20T16:26:33.803Z,1.20
2022-11-20T16:29:03.394Z,1.40
2022-11-20T16:31:30.432Z,1.20
2022-11-20T16:34:00.911Z,1.10
2022-11-20T16:36:30.207Z,1.20
2022-11-20T16:39:00.601Z,1.27
2022-11-20T16:41:30.733Z,1.00
2022-11-20T16:44:00.495Z,1.20
2022-11-20T16:46:30.856Z,1.03
2022-11-20T16:49:06.378Z,0.83
2022-11-20T16:51:36.108Z,1.17
2022-11-20T16:54:08.593Z,1.10
2022-11-20T16:56:36.070Z,1.47
2022-11-20T16:59:03.674Z,1.60
2022-11-20T17:01:31.785Z,1.00
2022-11-20T17:04:05.187Z,1.30
2022-11-20T17:06:44.049Z,1.37
2022-11-20T17:09:11.507Z,1.27
2022-11-20T17:11:38.728Z,1.30
2022-11-20T17:14:07.397Z,1.50
2022-11-20T17:16:36.183Z,1.57
2022-11-20T17:19:04.091Z,1.73
2022-11-20T17:21:35.834Z,1.80
2022-11-20T17:24:08.407Z,1.53
2022-11-20T17:26:37.667Z,1.40
2022-11-20T17:29:09.587Z,1.70
2022-11-20T17:31:41.007Z,1.57
2022-11-20T17:34:11.540Z,2.00
2022-11-20T17:36:45.716Z,1.60
2022-11-20T17:39:14.936Z,1.70
2022-11-20T17:41:42.058Z,1.77
2022-11-20T17:44:12.835Z,1.67
2022-11-20T17:46:40.039Z,1.80
2022-11-20T17:49:07.436Z,1.40
2022-11-20T17:51:37.879Z,1.73
2022-11-20T17:54:09.521Z,1.50
2022-11-20T17:56:55.264Z,1.70
2022-11-20T17:59:22.298Z,1.60
2022-11-20T18:01:49.345Z,1.37
2022-11-20T18:04:16.821Z,1.50
2022-11-20T18:06:44.090Z,1.30
2022-11-20T18:09:11.563Z,1.80
2022-11-20T18:11:41.979Z,2.10
2022-11-20T18:14:36.254Z,1.80
2022-11-20T18:17:10.769Z,1.83
2022-11-20T18:19:55.536Z,1.70
2022-11-20T18:22:31.292Z,2.10
2022-11-20T18:24:58.227Z,1.93
2022-11-20T18:27:25.055Z,1.80
2022-11-20T18:29:52.328Z,1.90
2022-11-20T18:32:21.756Z,2.10
2022-11-20T18:34:48.736Z,2.13
2022-11-20T18:37:16.513Z,2.30
2022-11-20T18:39:43.605Z,2.67
2022-11-20T18:42:34.837Z,2.10
2022-11-20T18:45:04.648Z,2.30
2022-11-20T18:47:37.290Z,2.20
2022-11-20T18:50:07.927Z,1.90
2022-11-20T18:52:44.276Z,2.03
2022-11-20T18:55:12.593Z,1.87
2022-11-20T18:57:39.434Z,2.07
2022-11-20T19:00:09.684Z,2.17
2022-11-20T19:02:43.019Z,2.20
2022-11-20T19:05:14.755Z,2.17
2022-11-20T19:07:42.388Z,2.13
2022-11-20T19:10:09.596Z,1.90
2022-11-20T19:12:36.516Z,1.90
2022-11-20T19:15:04.199Z,2.20
2022-11-20T19:17:33.016Z,2.83
2022-11-20T19:20:00.231Z,2.70
2022-11-20T19:22:27.122Z,2.97
2022-11-20T19:24:54.624Z,2.80
2022-11-20T19:27:21.502Z,4.50
2022-11-20T19:29:48.429Z,4.20
2022-11-20T19:32:16.265Z,3.67
2022-11-20T19:34:43.657Z,3.57
2022-11-20T19:37:10.653Z,3.43
2022-11-20T19:39:37.710Z,3.17
2022-11-20T19:42:04.606Z,3.13
2022-11-20T19:44:32.928Z,3.67
2022-11-20T19:47:00.434Z,3.87
2022-11-20T19:49:27.264Z,3.93
2022-11-20T19:51:54.102Z,3.80
2022-11-20T19:54:20.966Z,4.13
2022-11-20T19:56:49.413Z,3.60
2022-11-20T19:59:16.397Z,4.70
2022-11-20T20:01:43.490Z,4.10
2022-11-20T20:04:10.376Z,3.97
2022-11-20T20:06:41.623Z,4.97
2022-11-20T20:09:11.951Z,4.70
2022-11-20T20:11:39.980Z,5.13
2022-11-20T20:14:14.974Z,4.97
2022-11-20T20:16:42.671Z,5.00
2022-11-20T20:19:14.493Z,5.70
2022-11-20T20:21:41.468Z,5.47
2022-11-20T20:24:11.016Z,5.50
2022-11-20T20:26:38.132Z,5.37
2022-11-20T20:29:04.918Z,5.53
2022-11-20T20:31:33.709Z,5.60
2022-11-20T20:34:03.223Z,5.77
2022-11-20T20:36:30.163Z,5.07
2022-11-20T20:39:04.909Z,5.93
2022-11-20T20:41:32.164Z,4.93
2022-11-20T20:44:17.831Z,5.37
2022-11-20T20:46:44.704Z,5.43
2022-11-20T20:49:11.954Z,4.93
2022-11-20T20:51:39.030Z,5.47
2022-11-20T20:54:06.008Z,5.23
2022-11-20T20:56:32.852Z,5.17
2022-11-20T20:58:59.664Z,5.47
2022-11-20T21:01:29.017Z,5.37
2022-11-20T21:03:57.082Z,5.90
2022-11-20T21:06:24.179Z,6.20
2022-11-20T21:08:51.729Z,6.37
2022-11-20T21:11:20.349Z,5.87
2022-11-20T21:13:47.941Z,5.47
2022-11-20T21:16:17.871Z,5.70
2022-11-20T21:18:44.758Z,5.63
2022-11-20T21:21:34.928Z,5.73
2022-11-20T21:24:02.832Z,5.53
2022-11-20T21:26:30.108Z,6.03
2022-11-20T21:28:57.548Z,5.57
2022-11-20T21:31:26.694Z,5.83
2022-11-20T21:33:56.357Z,6.70
2022-11-20T21:36:26.740Z,6.03
2022-11-20T21:38:55.218Z,5.43
2022-11-20T21:41:23.926Z,5.80
2022-11-20T21:44:29.034Z,5.40
2022-11-20T21:46:45.261Z,4.63
2022-11-20T21:49:12.777Z,3.90
2022-11-20T21:51:39.588Z,2.87
2022-11-20T21:54:06.443Z,2.97
2022-11-20T21:56:33.490Z,2.77
2022-11-20T21:59:00.539Z,2.00
2022-11-20T22:01:30.166Z,1.63
2022-11-20T22:04:02.052Z,2.10
2022-11-20T22:06:34.275Z,2.13
2022-11-20T22:09:02.688Z,2.43
2022-11-20T22:11:30.093Z,2.70
2022-11-20T22:14:15.290Z,2.10
2022-11-20T22:16:42.167Z,2.57
2022-11-20T22:19:09.624Z,2.50
2022-11-20T22:21:39.627Z,2.37
2022-11-20T22:24:06.738Z,2.70
2022-11-20T22:26:40.130Z,2.37
2022-11-20T22:29:08.396Z,2.03
2022-11-20T22:31:35.207Z,2.10
2022-11-20T22:34:02.874Z,2.10
2022-11-20T22:36:31.545Z,1.70
2022-11-20T22:38:58.782Z,1.80
2022-11-20T22:41:28.240Z,1.80
2022-11-20T22:44:00.592Z,1.93
2022-11-20T22:46:30.597Z,1.73
2022-11-20T22:49:01.335Z,2.00
2022-11-20T22:51:35.093Z,1.90
2022-11-20T22:54:03.499Z,1.80
2022-11-20T22:56:31.031Z,1.97
2022-11-20T22:58:57.862Z,2.20
2022-11-20T23:01:30.968Z,1.90
2022-11-20T23:04:04.503Z,2.00
2022-11-20T23:06:34.341Z,2.40
2022-11-20T23:09:02.898Z,1.97
2022-11-20T23:11:31.503Z,2.20
2022-11-20T23:14:05.277Z,2.10
2022-11-20T23:16:33.532Z,1.77
2022-11-20T23:19:04.847Z,2.10
2022-11-20T23:21:32.466Z,2.43
2022-11-20T23:24:00.081Z,2.10
2022-11-20T23:26:30.650Z,2.20
2022-11-20T23:28:59.049Z,1.87
2022-11-20T23:31:28.358Z,2.10
2022-11-20T23:33:55.467Z,1.70
2022-11-20T23:36:22.568Z,1.50
2022-11-20T23:38:49.480Z,1.10
2022-11-20T23:41:16.848Z,1.20
2022-11-20T23:43:43.774Z,0.90
2022-11-20T23:46:15.109Z,1.00
2022-11-20T23:48:44.797Z,0.90
2022-11-20T23:51:11.627Z,1.00
2022-11-20T23:53:38.569Z,1.00
2022-11-20T23:56:06.094Z,0.90
2022-11-20T23:58:35.999Z,0.80
